createdAt,value
2023-12-26T00:04:40.698Z,68.13
2023-12-26T00:15:05.748Z,68.25
2023-12-26T00:25:29.717Z,67.80
2023-12-26T00:35:55.967Z,66.95
2023-12-26T00:46:20.820Z,66.23
2023-12-26T00:56:45.117Z,65.43
2023-12-26T01:07:08.933Z,64.53
2023-12-26T01:17:34.117Z,64.77
2023-12-26T01:27:58.901Z,65.60
2023-12-26T01:38:22.798Z,66.11
2023-12-26T01:48:49.928Z,66.46
2023-12-26T01:59:16.840Z,66.67
2023-12-26T02:09:41.441Z,67.54
2023-12-26T02:20:06.448Z,67.62
2023-12-26T02:30:32.838Z,68.06
2023-12-26T02:40:56.384Z,68.35
2023-12-26T02:51:21.318Z,68.21
2023-12-26T03:01:46.553Z,68.16
2023-12-26T03:12:10.673Z,68.34
2023-12-26T03:22:35.091Z,68.09
2023-12-26T03:32:59.971Z,67.66
2023-12-26T03:43:24.184Z,67.22
2023-12-26T03:53:49.050Z,66.76
2023-12-26T04:04:13.752Z,66.54
2023-12-26T04:14:37.808Z,66.28
2023-12-26T04:25:02.414Z,66.28
2023-12-26T04:35:26.824Z,66.51
2023-12-26T04:45:50.425Z,66.47
2023-12-26T04:56:22.045Z,66.47
2023-12-26T05:06:46.760Z,68.00
2023-12-26T05:17:11.488Z,69.61
2023-12-26T05:27:35.698Z,69.80
2023-12-26T05:38:01.923Z,70.15
2023-12-26T05:48:25.946Z,69.85
2023-12-26T05:58:50.600Z,68.99
2023-12-26T06:09:18.108Z,68.14
2023-12-26T06:19:42.763Z,67.60
2023-12-26T06:30:08.844Z,66.72
2023-12-26T06:40:34.556Z,65.89
2023-12-26T06:50:59.125Z,65.30
2023-12-26T07:01:23.559Z,65.03
2023-12-26T07:11:50.188Z,64.60
2023-12-26T07:22:14.339Z,64.35
2023-12-26T07:32:38.698Z,64.14
2023-12-26T07:43:03.529Z,63.61
2023-12-26T07:53:27.270Z,62.85
2023-12-26T08:03:51.759Z,62.60
2023-12-26T08:14:19.255Z,62.53
2023-12-26T08:24:44.161Z,62.33
2023-12-26T08:35:09.096Z,62.21
2023-12-26T08:45:33.600Z,61.69
2023-12-26T08:55:57.604Z,61.85
2023-12-26T09:06:23.006Z,61.42
2023-12-26T09:16:47.924Z,61.22
2023-12-26T09:27:12.441Z,60.79
2023-12-26T09:37:40.822Z,60.06
2023-12-26T09:48:05.898Z,59.82
2023-12-26T09:58:31.521Z,59.97
2023-12-26T10:08:56.516Z,60.58
2023-12-26T10:19:21.535Z,61.12
2023-12-26T10:29:55.207Z,65.07
2023-12-26T10:40:22.882Z,66.27
2023-12-26T10:50:48.977Z,66.29
2023-12-26T11:01:14.015Z,66.10
2023-12-26T11:11:39.649Z,65.86
2023-12-26T11:22:05.341Z,65.58
2023-12-26T11:32:30.119Z,66.14
2023-12-26T11:42:55.422Z,66.67
2023-12-26T11:53:20.232Z,66.88
2023-12-26T12:03:44.438Z,66.98
2023-12-26T12:14:16.789Z,67.45
2023-12-26T12:24:41.232Z,66.65
2023-12-26T12:35:18.074Z,66.65
2023-12-26T12:45:43.367Z,66.49
2023-12-26T12:56:08.417Z,66.51
2023-12-26T13:06:33.330Z,65.11
2023-12-26T13:17:01.562Z,63.91
2023-12-26T13:27:26.317Z,63.37
2023-12-26T13:37:50.263Z,63.71
2023-12-26T13:48:15.451Z,64.20
2023-12-26T13:58:40.256Z,63.51
2023-12-26T14:09:05.217Z,63.29
2023-12-26T14:19:35.150Z,62.68
2023-12-26T14:29:59.911Z,61.86
2023-12-26T14:40:23.737Z,61.17
2023-12-26T14:50:48.069Z,60.09
2023-12-26T15:01:12.654Z,61.42
2023-12-26T15:11:38.065Z,60.03
2023-12-26T15:22:01.956Z,61.83
2023-12-26T15:32:26.393Z,61.46
2023-12-26T15:42:50.071Z,60.10
2023-12-26T15:53:14.787Z,61.07
2023-12-26T16:03:38.971Z,62.15
2023-12-26T16:14:07.335Z,60.69
2023-12-26T16:24:34.188Z,60.26
2023-12-26T16:34:59.262Z,61.18
2023-12-26T16:45:24.400Z,61.44
2023-12-26T16:55:49.239Z,59.75
2023-12-26T17:06:13.772Z,60.88
2023-12-26T17:16:37.736Z,61.13
2023-12-26T17:27:02.258Z,59.63
2023-12-26T17:37:26.747Z,61.49
2023-12-26T17:47:50.802Z,60.93
2023-12-26T17:58:15.354Z,59.89
2023-12-26T18:08:40.099Z,61.08
2023-12-26T18:19:05.545Z,61.77
2023-12-26T18:29:30.016Z,59.95
2023-12-26T18:39:54.786Z,60.90
2023-12-26T18:50:18.899Z,61.58
2023-12-26T19:00:44.955Z,60.74
2023-12-26T19:11:09.820Z,60.13
2023-12-26T19:21:36.373Z,61.63
2023-12-26T19:32:01.241Z,61.48
2023-12-26T19:42:25.759Z,60.15
2023-12-26T19:52:49.680Z,60.94
2023-12-26T20:03:22.641Z,61.78
2023-12-26T20:13:51.950Z,60.72
2023-12-26T20:24:17.718Z,60.17
2023-12-26T20:34:42.306Z,61.56
2023-12-26T20:45:07.354Z,60.93
2023-12-26T20:55:31.422Z,60.03
2023-12-26T21:05:55.441Z,60.45
2023-12-26T21:16:20.897Z,61.20
2023-12-26T21:26:48.102Z,61.04
2023-12-26T21:37:13.517Z,59.64
2023-12-26T21:47:46.459Z,60.76
2023-12-26T21:58:10.712Z,60.76
2023-12-26T22:08:35.266Z,59.85
2023-12-26T22:18:59.630Z,60.87
2023-12-26T22:29:23.554Z,61.39
2023-12-26T22:39:47.682Z,60.64
2023-12-26T22:50:12.307Z,60.32
2023-12-26T23:00:36.369Z,61.71
2023-12-26T23:11:00.344Z,61.70
2023-12-26T23:21:25.377Z,60.25
2023-12-26T23:31:52.308Z,62.59
2023-12-26T23:42:17.126Z,60.46
2023-12-26T23:52:42.401Z,60.90
